createdAt,value
2023-12-31T00:02:16.350Z,94734.78
2023-12-31T00:04:44.489Z,94730.16
2023-12-31T00:07:11.406Z,94726.16
2023-12-31T00:09:40.026Z,94729.31
2023-12-31T00:12:07.201Z,94725.09
2023-12-31T00:14:33.939Z,94713.44
2023-12-31T00:17:00.748Z,94701.66
2023-12-31T00:19:27.575Z,94698.19
2023-12-31T00:21:54.361Z,94691.09
2023-12-31T00:24:21.089Z,94685.44
2023-12-31T00:26:47.801Z,94683.16
2023-12-31T00:29:14.544Z,94673.75
2023-12-31T00:31:41.288Z,94669.47
2023-12-31T00:34:08.007Z,94670.03
2023-12-31T00:36:34.832Z,94659.81
2023-12-31T00:39:01.880Z,94664.31
2023-12-31T00:41:28.616Z,94656.44
2023-12-31T00:43:55.370Z,94654.22
2023-12-31T00:46:22.214Z,94648.69
2023-12-31T00:48:48.952Z,94642.06
2023-12-31T00:51:16.128Z,94642.63
2023-12-31T00:53:42.868Z,94639.00
2023-12-31T00:56:10.230Z,94632.75
2023-12-31T00:58:37.419Z,94627.84
2023-12-31T01:01:04.827Z,94620.22
2023-12-31T01:03:31.618Z,94609.13
2023-12-31T01:06:08.568Z,94616.16
2023-12-31T01:08:35.582Z,94606.44
2023-12-31T01:11:02.337Z,94606.41
2023-12-31T01:13:29.579Z,94601.22
2023-12-31T01:15:56.419Z,94593.63
2023-12-31T01:18:23.205Z,94584.34
2023-12-31T01:20:49.914Z,94569.88
2023-12-31T01:23:16.747Z,94571.28
2023-12-31T01:25:44.167Z,94575.22
2023-12-31T01:28:11.255Z,94574.53
2023-12-31T01:30:38.059Z,94571.47
2023-12-31T01:33:05.213Z,94563.13
2023-12-31T01:35:32.110Z,94561.13
2023-12-31T01:37:58.815Z,94565.00
2023-12-31T01:40:25.638Z,94560.38
2023-12-31T01:42:52.401Z,94555.19
2023-12-31T01:45:19.078Z,94554.31
2023-12-31T01:47:46.787Z,94552.19
2023-12-31T01:50:14.861Z,94550.88
2023-12-31T01:52:44.100Z,94544.06
2023-12-31T01:55:13.656Z,94538.50
2023-12-31T01:57:41.703Z,94539.28
2023-12-31T02:00:10.726Z,94534.94
2023-12-31T02:02:37.665Z,94525.22
2023-12-31T02:05:04.907Z,94527.63
2023-12-31T02:07:31.760Z,94532.72
2023-12-31T02:09:58.670Z,94529.19
2023-12-31T02:12:25.466Z,94527.19
2023-12-31T02:14:52.129Z,94520.16
2023-12-31T02:17:18.974Z,94517.78
2023-12-31T02:19:45.821Z,94506.31
2023-12-31T02:22:12.928Z,94499.22
2023-12-31T02:24:49.120Z,94506.41
2023-12-31T02:27:18.586Z,94502.41
2023-12-31T02:29:45.313Z,94498.63
2023-12-31T02:32:12.043Z,94503.53
2023-12-31T02:34:39.211Z,94503.97
2023-12-31T02:37:06.012Z,94504.53
2023-12-31T02:39:32.743Z,94502.69
2023-12-31T02:41:59.578Z,94506.72
2023-12-31T02:44:26.281Z,94506.69
2023-12-31T02:46:53.367Z,94506.56
2023-12-31T02:49:20.191Z,94507.41
2023-12-31T02:51:46.930Z,94497.03
2023-12-31T02:54:13.736Z,94493.59
2023-12-31T02:56:41.692Z,94490.28
2023-12-31T02:59:08.723Z,94492.97
2023-12-31T03:01:35.570Z,94486.97
2023-12-31T03:04:02.611Z,94483.63
2023-12-31T03:06:30.452Z,94485.94
2023-12-31T03:08:57.184Z,94481.13
2023-12-31T03:11:23.951Z,94487.47
2023-12-31T03:13:50.786Z,94482.66
2023-12-31T03:16:17.550Z,94481.84
2023-12-31T03:18:44.341Z,94495.53
2023-12-31T03:21:17.481Z,94487.59
2023-12-31T03:23:44.222Z,94487.53
2023-12-31T03:26:10.967Z,94479.06
2023-12-31T03:28:37.991Z,94481.84
2023-12-31T03:31:05.071Z,94486.53
2023-12-31T03:33:32.292Z,94484.53
2023-12-31T03:35:59.093Z,94486.16
2023-12-31T03:38:25.817Z,94482.41
2023-12-31T03:40:52.574Z,94483.22
2023-12-31T03:43:19.303Z,94480.06
2023-12-31T03:45:45.966Z,94482.72
2023-12-31T03:48:12.816Z,94479.81
2023-12-31T03:50:39.517Z,94463.91
2023-12-31T03:53:06.461Z,94457.91
2023-12-31T03:55:33.299Z,94470.13
2023-12-31T03:58:00.279Z,94467.25
2023-12-31T04:00:27.025Z,94470.78
2023-12-31T04:02:53.699Z,94469.13
2023-12-31T04:05:20.535Z,94470.72
2023-12-31T04:07:49.969Z,94477.34
2023-12-31T04:10:17.995Z,94470.47
2023-12-31T04:13:00.541Z,94469.28
2023-12-31T04:15:29.076Z,94471.56
2023-12-31T04:18:14.013Z,94468.28
2023-12-31T04:20:40.870Z,94473.16
2023-12-31T04:23:08.356Z,94477.28
2023-12-31T04:25:35.061Z,94476.06
2023-12-31T04:28:01.864Z,94473.06
2023-12-31T04:30:28.573Z,94471.50
2023-12-31T04:32:55.311Z,94474.81
2023-12-31T04:35:22.090Z,94468.47
2023-12-31T04:37:48.796Z,94475.97
2023-12-31T04:40:15.780Z,94485.88
2023-12-31T04:42:42.434Z,94482.59
2023-12-31T04:45:09.459Z,94478.56
2023-12-31T04:47:37.230Z,94474.38
2023-12-31T04:50:04.359Z,94461.31
2023-12-31T04:52:31.134Z,94468.38
2023-12-31T04:54:57.882Z,94474.69
2023-12-31T04:57:24.544Z,94467.19
2023-12-31T04:59:51.214Z,94460.09
2023-12-31T05:02:18.052Z,94453.94
2023-12-31T05:04:44.745Z,94443.41
2023-12-31T05:07:11.484Z,94448.31
2023-12-31T05:09:38.406Z,94452.72
2023-12-31T05:12:05.451Z,94451.00
2023-12-31T05:14:32.154Z,94449.72
2023-12-31T05:16:58.853Z,94443.47
2023-12-31T05:19:25.574Z,94447.94
2023-12-31T05:21:52.258Z,94439.50
2023-12-31T05:24:19.000Z,94440.19
2023-12-31T05:26:45.661Z,94449.59
2023-12-31T05:29:12.361Z,94447.25
2023-12-31T05:31:39.070Z,94459.63
2023-12-31T05:34:05.840Z,94458.69
2023-12-31T05:36:32.572Z,94456.66
2023-12-31T05:38:59.230Z,94450.50
2023-12-31T05:41:25.949Z,94462.34
2023-12-31T05:43:52.684Z,94453.78
2023-12-31T05:46:19.473Z,94469.34
2023-12-31T05:48:46.283Z,94450.94
2023-12-31T05:51:13.028Z,94463.59
2023-12-31T05:53:39.736Z,94454.31
2023-12-31T05:56:06.958Z,94448.91
2023-12-31T05:58:33.724Z,94455.34
2023-12-31T06:01:00.566Z,94448.75
2023-12-31T06:03:27.656Z,94457.97
2023-12-31T06:05:54.413Z,94464.00
2023-12-31T06:08:21.151Z,94452.41
2023-12-31T06:10:47.932Z,94458.72
2023-12-31T06:13:14.998Z,94462.91
2023-12-31T06:15:41.753Z,94464.63
2023-12-31T06:18:08.594Z,94459.25
2023-12-31T06:20:35.345Z,94463.09
2023-12-31T06:23:02.498Z,94460.59
2023-12-31T06:25:29.400Z,94454.81
2023-12-31T06:27:56.195Z,94448.16
2023-12-31T06:30:23.116Z,94440.91
2023-12-31T06:32:50.001Z,94450.16
2023-12-31T06:35:16.740Z,94448.00
2023-12-31T06:37:43.517Z,94447.38
2023-12-31T06:40:10.704Z,94450.06
2023-12-31T06:42:37.762Z,94437.16
2023-12-31T06:45:05.866Z,94443.53
2023-12-31T06:47:32.748Z,94436.19
2023-12-31T06:49:59.582Z,94439.75
2023-12-31T06:52:26.327Z,94438.72
2023-12-31T06:54:53.052Z,94425.94
2023-12-31T06:57:19.723Z,94430.63
2023-12-31T06:59:46.442Z,94424.69
2023-12-31T07:02:13.094Z,94421.50
2023-12-31T07:04:39.839Z,94424.22
2023-12-31T07:07:06.512Z,94425.31
2023-12-31T07:09:33.273Z,94428.84
2023-12-31T07:12:00.251Z,94444.50
2023-12-31T07:14:27.027Z,94436.81
2023-12-31T07:16:53.875Z,94433.38
2023-12-31T07:19:20.683Z,94431.13
2023-12-31T07:21:47.398Z,94432.28
2023-12-31T07:24:14.197Z,94430.53
2023-12-31T07:26:40.916Z,94425.50
2023-12-31T07:29:10.420Z,94419.75
2023-12-31T07:31:39.600Z,94419.88
2023-12-31T07:34:07.563Z,94413.78
2023-12-31T07:36:34.600Z,94423.22
2023-12-31T07:39:01.704Z,94416.00
2023-12-31T07:41:28.830Z,94413.03
2023-12-31T07:43:55.655Z,94418.91
2023-12-31T07:46:22.771Z,94413.69
2023-12-31T07:48:49.606Z,94415.50
2023-12-31T07:51:16.386Z,94419.84
2023-12-31T07:53:43.065Z,94418.13
2023-12-31T07:56:09.724Z,94418.81
2023-12-31T07:58:36.960Z,94416.63
2023-12-31T08:01:04.144Z,94429.25
2023-12-31T08:03:31.540Z,94415.03
2023-12-31T08:05:59.051Z,94415.00
2023-12-31T08:08:25.980Z,94409.34
2023-12-31T08:10:53.115Z,94414.94
2023-12-31T08:13:20.344Z,94418.22
2023-12-31T08:15:48.286Z,94418.03
2023-12-31T08:18:15.697Z,94414.66
2023-12-31T08:20:43.100Z,94407.47
2023-12-31T08:23:09.866Z,94405.47
2023-12-31T08:25:36.607Z,94407.53
2023-12-31T08:28:03.642Z,94412.88
2023-12-31T08:30:30.456Z,94404.88
2023-12-31T08:32:57.315Z,94410.47
2023-12-31T08:35:24.283Z,94414.56
2023-12-31T08:37:51.294Z,94407.19
2023-12-31T08:40:18.097Z,94423.63
2023-12-31T08:42:45.178Z,94415.44
2023-12-31T08:45:13.335Z,94411.72
2023-12-31T08:47:40.193Z,94410.31
2023-12-31T08:50:07.984Z,94419.28
2023-12-31T08:52:36.041Z,94411.47
2023-12-31T08:55:02.975Z,94403.75
2023-12-31T08:57:29.733Z,94411.69
2023-12-31T08:59:56.575Z,94408.25
2023-12-31T09:02:25.985Z,94394.19
2023-12-31T09:04:52.773Z,94395.53
2023-12-31T09:07:19.801Z,94387.44
2023-12-31T09:09:46.854Z,94397.81
2023-12-31T09:12:13.642Z,94383.72
2023-12-31T09:14:40.380Z,94375.34
2023-12-31T09:17:07.164Z,94377.19
2023-12-31T09:19:33.909Z,94370.78
2023-12-31T09:22:00.704Z,94368.91
2023-12-31T09:24:27.468Z,94372.56
2023-12-31T09:26:54.223Z,94374.72
2023-12-31T09:29:20.986Z,94380.66
2023-12-31T09:31:47.722Z,94375.91
2023-12-31T09:34:14.581Z,94379.81
2023-12-31T09:36:41.553Z,94395.84
2023-12-31T09:39:08.290Z,94393.59
2023-12-31T09:41:37.364Z,94400.72
2023-12-31T09:44:04.385Z,94386.28
2023-12-31T09:46:37.844Z,94388.19
2023-12-31T09:49:07.422Z,94377.63
2023-12-31T09:51:35.380Z,94377.56
2023-12-31T09:54:06.864Z,94382.78
2023-12-31T09:56:35.283Z,94370.66
2023-12-31T09:59:05.900Z,94363.28
2023-12-31T10:01:36.806Z,94362.28
2023-12-31T10:04:03.927Z,94353.31
2023-12-31T10:06:32.356Z,94357.75
2023-12-31T10:08:59.205Z,94354.06
2023-12-31T10:11:25.877Z,94347.38
2023-12-31T10:13:52.660Z,94351.16
2023-12-31T10:16:19.465Z,94347.69
2023-12-31T10:18:46.284Z,94342.28
2023-12-31T10:21:12.965Z,94339.91
2023-12-31T10:23:39.628Z,94333.72
2023-12-31T10:26:06.437Z,94334.75
2023-12-31T10:28:33.260Z,94332.78
2023-12-31T10:31:00.337Z,94339.13
2023-12-31T10:33:30.131Z,94336.28
2023-12-31T10:36:05.930Z,94327.28
2023-12-31T10:38:49.438Z,94317.03
2023-12-31T10:41:18.773Z,94320.41
2023-12-31T10:43:45.880Z,94318.84
2023-12-31T10:46:15.612Z,94318.94
2023-12-31T10:49:02.492Z,94307.41
2023-12-31T10:51:29.322Z,94301.13
2023-12-31T10:54:04.562Z,94298.69
2023-12-31T10:56:33.352Z,94288.66
2023-12-31T10:59:00.279Z,94272.19
2023-12-31T11:01:27.340Z,94285.38
2023-12-31T11:03:55.038Z,94282.38
2023-12-31T11:06:22.838Z,94261.38
2023-12-31T11:08:50.457Z,94281.75
2023-12-31T11:11:17.845Z,94273.44
2023-12-31T11:13:54.837Z,94285.47
2023-12-31T11:16:59.151Z,94289.47
2023-12-31T11:19:50.869Z,94280.75
2023-12-31T11:22:56.459Z,94284.56
2023-12-31T11:25:23.927Z,94279.00
2023-12-31T11:27:51.583Z,94287.09
2023-12-31T11:30:44.878Z,94288.28
2023-12-31T11:33:11.764Z,94294.47
2023-12-31T11:35:43.307Z,94293.47
2023-12-31T11:38:10.109Z,94299.53
2023-12-31T11:40:37.755Z,94284.16
2023-12-31T11:43:15.808Z,94286.50
2023-12-31T11:45:44.791Z,94283.47
2023-12-31T11:48:20.707Z,94283.25
2023-12-31T11:50:55.072Z,94276.25
2023-12-31T11:53:22.951Z,94278.66
2023-12-31T11:56:16.125Z,94287.13
2023-12-31T11:58:44.101Z,94281.16
2023-12-31T12:01:11.033Z,94281.19
2023-12-31T12:03:37.980Z,94287.69
2023-12-31T12:06:05.001Z,94302.38
2023-12-31T12:08:33.133Z,94354.06
2023-12-31T12:11:02.266Z,94324.22
2023-12-31T12:13:29.212Z,94367.88
2023-12-31T12:15:58.357Z,94360.03
2023-12-31T12:18:25.189Z,94368.69
2023-12-31T12:20:55.059Z,94379.59
2023-12-31T12:23:22.790Z,94382.28
2023-12-31T12:25:49.614Z,94385.19
2023-12-31T12:28:16.416Z,94379.69
2023-12-31T12:30:44.092Z,94372.78
2023-12-31T12:33:14.589Z,94372.72
2023-12-31T12:35:43.029Z,94371.03
2023-12-31T12:38:09.778Z,94379.47
2023-12-31T12:40:36.479Z,94379.41
2023-12-31T12:43:03.588Z,94393.91
2023-12-31T12:45:33.614Z,94412.66
2023-12-31T12:48:02.457Z,94425.63
2023-12-31T12:50:29.501Z,94427.97
2023-12-31T12:52:57.291Z,94430.50
2023-12-31T12:55:24.065Z,94414.84
2023-12-31T12:57:50.742Z,94433.31
2023-12-31T13:00:17.637Z,94438.75
2023-12-31T13:02:45.558Z,94432.09
2023-12-31T13:05:12.207Z,94433.47
2023-12-31T13:07:38.988Z,94442.63
2023-12-31T13:10:06.020Z,94437.28
2023-12-31T13:12:32.754Z,94445.28
2023-12-31T13:14:59.521Z,94440.69
2023-12-31T13:17:26.258Z,94449.03
2023-12-31T13:19:53.057Z,94443.91
2023-12-31T13:22:19.784Z,94450.34
2023-12-31T13:24:46.449Z,94443.44
2023-12-31T13:27:13.208Z,94438.22
2023-12-31T13:29:40.043Z,94444.09
2023-12-31T13:32:08.375Z,94455.91
2023-12-31T13:34:35.492Z,94459.56
2023-12-31T13:37:02.266Z,94474.09
2023-12-31T13:39:29.044Z,94467.78
2023-12-31T13:41:56.413Z,94474.50
2023-12-31T13:44:23.477Z,94472.47
2023-12-31T13:46:50.229Z,94473.00
2023-12-31T13:49:17.065Z,94477.06
2023-12-31T13:51:43.886Z,94477.34
2023-12-31T13:54:10.918Z,94463.09
2023-12-31T13:56:37.900Z,94466.19
2023-12-31T13:59:04.765Z,94470.88
2023-12-31T14:01:31.802Z,94476.88
2023-12-31T14:03:58.609Z,94488.91
2023-12-31T14:06:25.495Z,94492.94
2023-12-31T14:08:52.805Z,94499.31
2023-12-31T14:11:22.691Z,94497.19
2023-12-31T14:13:49.510Z,94495.09
2023-12-31T14:16:16.274Z,94498.47
2023-12-31T14:18:43.099Z,94508.16
2023-12-31T14:21:10.035Z,94510.38
2023-12-31T14:23:36.723Z,94512.44
2023-12-31T14:26:03.667Z,94513.91
2023-12-31T14:28:30.871Z,94530.63
2023-12-31T14:30:57.746Z,94526.31
2023-12-31T14:33:24.705Z,94540.88
2023-12-31T14:35:51.755Z,94531.56
2023-12-31T14:38:18.596Z,94529.41
2023-12-31T14:40:45.506Z,94527.69
2023-12-31T14:43:12.799Z,94527.63
2023-12-31T14:45:39.599Z,94528.59
2023-12-31T14:48:07.039Z,94539.44
2023-12-31T14:50:34.287Z,94549.25
2023-12-31T14:53:01.505Z,94545.56
2023-12-31T14:55:28.376Z,94537.06
2023-12-31T14:57:55.425Z,94528.09
2023-12-31T15:00:22.280Z,94542.72
2023-12-31T15:02:49.761Z,94536.66
2023-12-31T15:05:18.662Z,94538.09
2023-12-31T15:07:45.929Z,94538.34
2023-12-31T15:10:13.588Z,94549.31
2023-12-31T15:12:41.087Z,94532.00
2023-12-31T15:15:11.194Z,94552.34
2023-12-31T15:17:38.172Z,94557.88
2023-12-31T15:20:06.014Z,94558.78
2023-12-31T15:22:32.997Z,94550.84
2023-12-31T15:25:00.230Z,94555.56
2023-12-31T15:27:27.393Z,94562.66
2023-12-31T15:29:54.172Z,94562.72
2023-12-31T15:32:21.233Z,94552.81
2023-12-31T15:34:47.966Z,94533.19
2023-12-31T15:37:14.703Z,94545.25
2023-12-31T15:39:41.496Z,94555.44
2023-12-31T15:42:09.219Z,94559.56
2023-12-31T15:44:36.238Z,94554.75
2023-12-31T15:47:03.144Z,94568.91
2023-12-31T15:49:30.333Z,94572.41
2023-12-31T15:51:57.359Z,94584.63
2023-12-31T15:54:24.393Z,94587.03
2023-12-31T15:56:51.400Z,94594.25
2023-12-31T15:59:18.176Z,94608.25
2023-12-31T16:01:45.305Z,94622.66
2023-12-31T16:04:12.364Z,94614.22
2023-12-31T16:06:39.037Z,94617.53
2023-12-31T16:09:05.706Z,94609.25
2023-12-31T16:11:33.002Z,94607.84
2023-12-31T16:13:59.731Z,94608.63
2023-12-31T16:16:26.452Z,94618.50
2023-12-31T16:18:53.328Z,94617.34
2023-12-31T16:21:20.036Z,94625.59
2023-12-31T16:23:46.757Z,94633.09
2023-12-31T16:26:13.509Z,94626.25
2023-12-31T16:28:40.292Z,94625.88
2023-12-31T16:31:07.370Z,94628.03
2023-12-31T16:33:38.500Z,94624.97
2023-12-31T16:36:27.769Z,94620.22
2023-12-31T16:38:54.674Z,94622.81
2023-12-31T16:41:22.540Z,94625.31
2023-12-31T16:43:50.821Z,94624.16
2023-12-31T16:46:18.123Z,94643.72
2023-12-31T16:48:45.017Z,94630.78
2023-12-31T16:51:11.905Z,94621.94
2023-12-31T16:53:38.928Z,94623.50
2023-12-31T16:56:06.229Z,94630.53
2023-12-31T16:58:33.016Z,94648.06
2023-12-31T17:01:00.236Z,94656.75
2023-12-31T17:03:26.984Z,94656.97
2023-12-31T17:05:53.677Z,94658.22
2023-12-31T17:08:20.374Z,94671.13
2023-12-31T17:10:47.592Z,94655.38
2023-12-31T17:13:14.392Z,94653.19
2023-12-31T17:15:41.217Z,94667.22
2023-12-31T17:18:08.177Z,94669.31
2023-12-31T17:20:35.156Z,94667.59
2023-12-31T17:23:01.870Z,94664.84
2023-12-31T17:25:28.703Z,94666.09
2023-12-31T17:27:55.464Z,94670.91
2023-12-31T17:30:22.220Z,94676.00
2023-12-31T17:32:49.376Z,94681.34
2023-12-31T17:35:16.324Z,94674.03
2023-12-31T17:37:43.707Z,94667.44
2023-12-31T17:40:10.865Z,94677.56
2023-12-31T17:42:37.799Z,94675.06
2023-12-31T17:45:05.057Z,94681.59
2023-12-31T17:47:31.831Z,94667.41
2023-12-31T17:49:58.647Z,94674.72
2023-12-31T17:52:25.610Z,94671.06
2023-12-31T17:54:52.706Z,94675.63
2023-12-31T17:57:19.512Z,94682.00
2023-12-31T17:59:46.245Z,94688.94
2023-12-31T18:02:13.134Z,94698.19
2023-12-31T18:04:41.582Z,94704.63
2023-12-31T18:07:11.123Z,94699.63
2023-12-31T18:09:37.876Z,94705.53
2023-12-31T18:12:05.131Z,94711.63
2023-12-31T18:14:31.850Z,94706.59
2023-12-31T18:16:58.798Z,94712.63
2023-12-31T18:19:25.580Z,94711.41
2023-12-31T18:21:52.334Z,94711.56
2023-12-31T18:24:19.070Z,94723.66
2023-12-31T18:26:45.821Z,94721.50
2023-12-31T18:29:12.601Z,94717.25
2023-12-31T18:31:39.580Z,94706.00
2023-12-31T18:34:06.354Z,94705.97
2023-12-31T18:36:33.051Z,94704.22
2023-12-31T18:39:00.227Z,94708.44
2023-12-31T18:41:26.924Z,94707.16
2023-12-31T18:43:53.660Z,94703.50
2023-12-31T18:46:20.343Z,94708.28
2023-12-31T18:48:47.113Z,94702.38
2023-12-31T18:51:13.837Z,94705.19
2023-12-31T18:53:40.521Z,94705.09
2023-12-31T18:56:11.142Z,94705.41
2023-12-31T18:58:38.208Z,94711.53
2023-12-31T19:01:05.253Z,94714.88
2023-12-31T19:03:32.006Z,94713.56
2023-12-31T19:05:58.757Z,94705.59
2023-12-31T19:08:25.416Z,94714.25
2023-12-31T19:10:52.093Z,94721.72
2023-12-31T19:13:18.906Z,94728.19
2023-12-31T19:15:45.696Z,94729.38
2023-12-31T19:18:12.985Z,94718.81
2023-12-31T19:20:39.751Z,94713.88
2023-12-31T19:23:06.966Z,94719.28
2023-12-31T19:25:34.105Z,94714.88
2023-12-31T19:28:00.875Z,94728.94
2023-12-31T19:30:28.044Z,94726.13
2023-12-31T19:32:54.920Z,94726.97
2023-12-31T19:35:21.607Z,94727.19
2023-12-31T19:37:48.416Z,94731.97
2023-12-31T19:40:15.580Z,94723.72
2023-12-31T19:42:42.276Z,94728.34
2023-12-31T19:45:09.353Z,94730.78
2023-12-31T19:47:36.295Z,94738.22
2023-12-31T19:50:03.162Z,94734.03
2023-12-31T19:52:30.360Z,94730.31
2023-12-31T19:54:57.805Z,94726.78
2023-12-31T19:57:25.435Z,94732.63
2023-12-31T19:59:52.216Z,94736.66
2023-12-31T20:02:19.211Z,94741.25
2023-12-31T20:04:46.083Z,94744.66
2023-12-31T20:07:12.934Z,94746.91
2023-12-31T20:09:39.808Z,94746.72
2023-12-31T20:12:07.266Z,94757.38
2023-12-31T20:14:33.925Z,94763.66
2023-12-31T20:17:00.615Z,94758.63
2023-12-31T20:19:27.356Z,94765.44
2023-12-31T20:21:54.031Z,94766.47
2023-12-31T20:24:20.726Z,94767.88
2023-12-31T20:26:47.470Z,94772.94
2023-12-31T20:29:16.751Z,94766.50
2023-12-31T20:31:44.357Z,94766.91
2023-12-31T20:34:11.046Z,94771.06
2023-12-31T20:36:37.706Z,94769.72
2023-12-31T20:39:05.417Z,94773.97
2023-12-31T20:41:32.234Z,94773.72
2023-12-31T20:43:58.880Z,94775.34
2023-12-31T20:46:25.629Z,94774.31
2023-12-31T20:48:52.383Z,94772.03
2023-12-31T20:51:19.164Z,94779.94
2023-12-31T20:53:46.055Z,94772.91
2023-12-31T20:56:12.736Z,94760.88
2023-12-31T20:58:39.496Z,94772.56
2023-12-31T21:01:06.718Z,94777.53
2023-12-31T21:03:33.506Z,94772.75
2023-12-31T21:06:00.348Z,94771.13
2023-12-31T21:08:27.208Z,94773.34
2023-12-31T21:10:53.953Z,94776.38
2023-12-31T21:13:22.615Z,94778.16
2023-12-31T21:15:50.800Z,94776.59
2023-12-31T21:18:19.290Z,94774.13
2023-12-31T21:20:46.278Z,94778.75
2023-12-31T21:23:13.051Z,94772.50
2023-12-31T21:25:39.825Z,94775.91
2023-12-31T21:28:08.392Z,94772.53
2023-12-31T21:30:36.126Z,94763.25
2023-12-31T21:33:04.361Z,94778.94
2023-12-31T21:35:31.428Z,94784.66
2023-12-31T21:37:58.158Z,94784.25
2023-12-31T21:40:24.950Z,94796.88
2023-12-31T21:42:51.615Z,94799.38
2023-12-31T21:45:18.372Z,94798.34
2023-12-31T21:47:45.170Z,94801.19
2023-12-31T21:50:12.033Z,94812.09
2023-12-31T21:52:39.040Z,94813.56
2023-12-31T21:55:13.860Z,94816.81
2023-12-31T21:57:46.938Z,94818.13
2023-12-31T22:00:14.263Z,94820.88
2023-12-31T22:02:40.979Z,94821.72
2023-12-31T22:05:07.726Z,94820.03
2023-12-31T22:07:34.558Z,94820.69
2023-12-31T22:10:01.260Z,94818.06
2023-12-31T22:12:27.893Z,94828.41
2023-12-31T22:14:54.549Z,94822.50
2023-12-31T22:17:21.237Z,94835.66
2023-12-31T22:19:48.175Z,94831.00
2023-12-31T22:22:14.888Z,94838.69
2023-12-31T22:24:41.503Z,94838.72
2023-12-31T22:27:08.175Z,94845.38
2023-12-31T22:29:34.825Z,94847.41
2023-12-31T22:32:01.537Z,94844.09
2023-12-31T22:34:28.636Z,94845.81
2023-12-31T22:36:55.966Z,94843.66
2023-12-31T22:39:22.713Z,94838.25
2023-12-31T22:41:49.400Z,94851.44
2023-12-31T22:44:16.093Z,94843.94
2023-12-31T22:46:42.868Z,94849.56
2023-12-31T22:49:09.594Z,94845.97
2023-12-31T22:51:36.268Z,94843.47
2023-12-31T22:54:02.950Z,94848.03
2023-12-31T22:56:29.675Z,94851.03
2023-12-31T22:58:56.373Z,94845.16
2023-12-31T23:01:23.061Z,94855.06
2023-12-31T23:03:49.710Z,94846.34
2023-12-31T23:06:16.483Z,94848.31
2023-12-31T23:08:43.238Z,94844.34
2023-12-31T23:11:10.109Z,94843.94
2023-12-31T23:13:36.891Z,94846.38
2023-12-31T23:16:04.861Z,94842.16
2023-12-31T23:18:31.617Z,94850.00
2023-12-31T23:20:58.391Z,94837.09
2023-12-31T23:23:25.086Z,94835.63
2023-12-31T23:25:51.905Z,94837.06
2023-12-31T23:28:19.254Z,94842.09
2023-12-31T23:30:45.954Z,94840.56
2023-12-31T23:33:12.793Z,94840.75
2023-12-31T23:35:39.582Z,94851.81
2023-12-31T23:38:06.443Z,94862.06
2023-12-31T23:40:33.258Z,94850.00
2023-12-31T23:43:00.051Z,94859.03
2023-12-31T23:45:26.768Z,94855.66
2023-12-31T23:47:53.623Z,94858.50
2023-12-31T23:50:20.501Z,94856.81
2023-12-31T23:52:47.356Z,94853.72
2023-12-31T23:55:14.122Z,94842.38
2023-12-31T23:57:40.946Z,94827.78
